सभी
Bellevue Airport (Bellevue, Western Australia) YBLU मौसम
There is no TAF data available at YBLU. Showing TAF data for YLST (17 mi S).
LER Terminal Area Forecast (no data for YBLU)
| Date | Time (AWST) | Flight Rules | Wind Dir. | Speed | Type | Height AGL (ft) | Visibility | Remarks | ||||||
|---|---|---|---|---|---|---|---|---|---|---|---|---|---|---|
| 03-मई | 18:00 | VFR | 130° | 10 kt | Clouds and Visibility are OK | >= 6 miles | ||||||||
| 03-मई | 17:00 | VFR | 130° | 10 kt | Clouds and Visibility are OK | >= 6 miles | ||||||||
| 03-मई | 16:00 | VFR | 130° | 10 kt | Clouds and Visibility are OK | >= 6 miles | ||||||||
| 03-मई | 15:00 | VFR | 130° | 10 kt | Clouds and Visibility are OK | >= 6 miles | ||||||||
| 03-मई | 14:00 | VFR | 130° | 10 kt | Clouds and Visibility are OK | >= 6 miles | ||||||||
| 03-मई | 13:00 | VFR | 130° | 10 kt | Clouds and Visibility are OK | >= 6 miles | ||||||||
| 03-मई | 12:00 | VFR | 130° | 10 kt | Clouds and Visibility are OK | >= 6 miles | ||||||||
| 03-मई | 11:00 | VFR | 130° | 10 kt | Clouds and Visibility are OK | >= 6 miles | ||||||||
| 03-मई | 10:00 | VFR | 130° | 10 kt | Clouds and Visibility are OK | >= 6 miles | ||||||||
There is no METAR data available at YBLU. Showing METAR data for YLST (17 mi S).
Recent LER METAR history (no data for YBLU)
| Date | Time (AWST) | Flight Rules | Wind Dir. | Speed | Type | Height AGL (ft) | Visibility | Temp (°C) | Temp (°F) | Dew Point (°C) | Dew Point (°F) | Rel. Humid. | Pressure | Density Altitude | Remarks |
|---|---|---|---|---|---|---|---|---|---|---|---|---|---|---|---|
| 03-मई | 10:00 | VFR | 110° | 9 kt | 10000 meters | 15° | 59° | 4° | 39° | 48% | 1024 mb | 1,550 ft | |||
| 03-मई | 09:00 | VFR | 120° | 9 kt | 10000 meters | 14° | 57° | 4° | 39° | 51% | 1024 mb | 1,430 ft | |||
| 03-मई | 08:00 | VFR | 120° | 7 kt | 10000 meters | 11° | 51° | 4° | 39° | 62% | 1024 mb | 1,070 ft | |||
| 03-मई | 07:00 | VFR | 140° | 4 kt | 10000 meters | 8° | 46° | 4° | 39° | 76% | 1023 mb | 739 ft | |||
| 03-मई | 06:00 | VFR | 150° | 3 kt | 10000 meters | 7° | 44° | 4° | 39° | 81% | 1022 mb | 649 ft | |||
| 03-मई | 05:00 | VFR | 150° | 4 kt | 10000 meters | 8° | 46° | 5° | 41° | 81% | 1022 mb | 769 ft | |||
| 03-मई | 04:00 | VFR | 120° | 3 kt | 10000 meters | 9° | 48° | 4° | 39° | 71% | 1022 mb | 889 ft | |||
| 03-मई | 03:00 | VFR | 140° | 3 kt | 10000 meters | 9° | 48° | 5° | 41° | 76% | 1022 mb | 889 ft | |||
| 03-मई | 02:00 | VFR | 120° | 4 kt | 10000 meters | 9° | 48° | 4° | 39° | 71% | 1021 mb | 918 ft | |||
| 03-मई | 01:00 | VFR | 110° | 6 kt | 10000 meters | 10° | 50° | 4° | 39° | 66% | 1021 mb | 1,038 ft | |||
| 03-मई | 00:00 | VFR | 120° | 5 kt | 10000 meters | 11° | 51° | 4° | 39° | 62% | 1021 mb | 1,158 ft | |||
| 02-मई | 23:00 | VFR | 130° | 4 kt | 10000 meters | 11° | 51° | 4° | 39° | 62% | 1021 mb | 1,158 ft | |||
| 02-मई | 22:00 | VFR | 150° | 3 kt | 10000 meters | 12° | 53° | 4° | 39° | 58% | 1022 mb | 1,249 ft | |||
| 02-मई | 21:00 | VFR | 150° | 1 kt | 10000 meters | 12° | 53° | 4° | 39° | 58% | 1021 mb | 1,278 ft | |||
| 02-मई | 20:00 | VFR | 140° | 4 kt | 10000 meters | 14° | 57° | 3° | 37° | 47% | 1021 mb | 1,518 ft | |||
| 02-मई | 19:00 | VFR | 170° | 6 kt | 10000 meters | 14° | 57° | 3° | 37° | 47% | 1021 mb | 1,518 ft | |||
| 02-मई | 18:00 | VFR | 170° | 8 kt | 10000 meters | 15° | 59° | 2° | 35° | 41% | 1020 mb | 1,668 ft | |||
| 02-मई | 17:00 | VFR | 170° | 9 kt | 10000 meters | 16° | 60° | 2° | 35° | 39% | 1020 mb | 1,788 ft | |||
| 02-मई | 16:00 | VFR | 180° | 7 kt | 10000 meters | 17° | 62° | 1° | 33° | 34% | 1019 mb | 1,938 ft | |||
| 02-मई | 15:00 | VFR | 170° | 7 kt | 10000 meters | 17° | 62° | 1° | 33° | 34% | 1020 mb | 1,908 ft | |||
| 02-मई | 14:00 | VFR | 170° | 7 kt | 10000 meters | 16° | 60° | 2° | 35° | 39% | 1020 mb | 1,788 ft | |||
| 02-मई | 13:00 | VFR | 150° | 7 kt | 10000 meters | 16° | 60° | 2° | 35° | 39% | 1020 mb | 1,788 ft | |||
| 02-मई | 12:00 | VFR | 160° | 11 kt | 10000 meters | 15° | 59° | 2° | 35° | 41% | 1021 mb | 1,638 ft | |||
| 02-मई | 11:00 | VFR | 120° | 7 kt | 10000 meters | 14° | 57° | 2° | 35° | 44% | 1022 mb | 1,489 ft |
लॉगिन
| Your browser is unsupported. अपना ब्राऊजर अपग्रेड करें |
